Home > Products > Valid Products > MTR

000
SAUS44 KMAF 250759
MTRGDP
METAR KGDP 250751Z AUTO VRB04KT 9SM CLR 24/09 RMK AO2 SLPNO
T02390094 $





000
SAUS44 KMAF 250754
MTR6R6
METAR K6R6 250753Z AUTO 03005KT 27/18 A3005 RMK AO1 SLP133 T02670178





000
SAUS44 KMAF 250659
MTRGDP
METAR KGDP 250651Z AUTO 06007KT 9SM CLR 24/09 RMK AO2 SLPNO
T02390094 403170200 $





000
SAUS44 KMAF 250654
MTR6R6
METAR K6R6 250653Z AUTO 05004KT 28/18 A3006 RMK AO1 SLP135 T02780183





000
SAUS44 KMAF 250559
MTRGDP
METAR KGDP 250551Z AUTO 13013KT 9SM CLR 26/08 RMK AO2 SLPNO
T02610083 10300 20250 $





000
SAUS44 KMAF 250554
MTR6R6
METAR K6R6 250553Z AUTO 13004KT 29/18 A3005 RMK AO1 SLP132 T02890178
10361 20289 403940261 51012





000
SAUS44 KMAF 250459
MTRGDP
METAR KGDP 250451Z AUTO 12013KT 9SM CLR 26/08 RMK AO2 SLPNO
T02560083 $





000
SAUS44 KMAF 250454
MTR6R6
METAR K6R6 250453Z AUTO 10008KT 30/17 A3004 RMK AO1 SLP130 T03000172





000
SAUS44 KMAF 250359
MTRGDP
METAR KGDP 250351Z AUTO 09012KT 9SM CLR 26/07 RMK AO2 SLPNO
T02610067 $





000
SAUS44 KMAF 250354
MTR6R6
METAR K6R6 250353Z AUTO 09008KT 31/16 A3003 RMK AO1 SLP128 T03110161





000
SAUS44 KMAF 250259
MTRGDP
METAR KGDP 250251Z AUTO 08010KT 9SM CLR 26/07 RMK AO2 SLPNO
T02610067 $





000
SAUS44 KMAF 250254
MTR6R6
METAR K6R6 250253Z AUTO 09005KT 32/13 A3001 RMK AO1 SLP120 T03220133
53012





000
SAUS44 KMAF 250159
MTRGDP
METAR KGDP 250151Z AUTO 08015KT 8SM CLR 28/06 RMK AO2 SLPNO
T02780056 $





000
SAUS44 KMAF 250154
MTR6R6
METAR K6R6 250153Z AUTO 12007KT 33/14 A2999 RMK AO1 PK WND
13031/0057 SLP113 T03330139





000
SAUS44 KMAF 250059
MTRGDP
METAR KGDP 250051Z AUTO 08015KT 8SM CLR 29/06 RMK AO2 SLPNO
T02890056 $





000
SAUS44 KMAF 250054
MTR6R6
METAR K6R6 250053Z AUTO 12021G28KT 33/18 A2998 RMK AO1 PK WND
12028/0053 WSHFT 0032 SLP109 T03330178





000
SAUS44 KMAF 242359
MTRGDP
METAR KGDP 242351Z AUTO 07011G20KT 8SM FEW095 30/05 RMK AO2 SLPNO
T03000050 10317 20289 $





000
SAUS44 KMAF 242355
MTR6R6
METAR K6R6 242353Z AUTO 34009G18KT 36/15 A2996 RMK AO1 SLP104
T03560150 10394 20350 56016





000
SAUS44 KMAF 242258
MTRGDP
METAR KGDP 242251Z AUTO 11012KT 8SM FEW100 31/07 RMK AO2 SLPNO
T03060067 $





000
SAUS44 KMAF 242256
MTR6R6
METAR K6R6 242253Z AUTO 10008KT 39/13 A2997 RMK AO1 SLP103 T03940128





000
SAUS44 KMAF 242158
MTRGDP
METAR KGDP 242151Z AUTO 07010KT 8SM FEW100 31/06 RMK AO2 SLPNO
T03110056 $





000
SAUS44 KMAF 242154
MTR6R6
METAR K6R6 242153Z AUTO 06008KT 39/14 A2999 RMK AO1 SLP109 T03890139





000
SAUS44 KMAF 242059
MTRGDP
METAR KGDP 242051Z AUTO 07015G23KT 8SM CLR 31/06 A3027 RMK AO2
SLP155 T03110061 56016





000
SAUS44 KMAF 242054
MTR6R6
METAR K6R6 242053Z AUTO 10008KT 38/13 A3002 RMK AO1 SLP119 T03830133
56020





000
SAUS44 KMAF 241959
MTRGDP
METAR KGDP 241951Z AUTO 07014G19KT 8SM CLR 31/06 A3028 RMK AO2
SLP157 T03060056





000
SAUS44 KMAF 241954
MTR6R6
METAR K6R6 241953Z AUTO 09007KT 020V130 38/15 A3003 RMK AO1 SLP126
T03780150





000
SAUS44 KMAF 241858
MTRGDP
METAR KGDP 241851Z AUTO 06015KT 8SM CLR 30/07 A3030 RMK AO2 SLP168
T03000067





000
SAUS44 KMAF 241854
MTR6R6
METAR K6R6 241853Z AUTO VRB06KT 37/15 A3006 RMK AO1 SLP133 T03670150





000
SAUS44 KMAF 241759
MTRGDP
METAR KGDP 241751Z AUTO 05014G19KT 8SM CLR 29/09 A3032 RMK AO2
SLP173 T02940089 10294 20200 58007





000
SAUS44 KMAF 241754
MTR6R6
METAR K6R6 241753Z AUTO 36/17 A3008 RMK AO1 SLP141 T03610167 10361
20261 58008





000
SAUS44 KMAF 241658
MTRGDP
METAR KGDP 241651Z AUTO 06009KT 8SM CLR 28/11 A3034 RMK AO2 SLP181
T02780111





000
SAUS44 KMAF 241654
MTR6R6
METAR K6R6 241653Z AUTO 22004KT 33/17 A3010 RMK AO1 SLP148 T03330167





000
SAUS44 KMAF 241558
MTRGDP
METAR KGDP 241551Z AUTO 09007KT 7SM CLR 27/13 A3034 RMK AO2 SLP184
T02670128





000
SAUS44 KMAF 241555
MTR6R6
METAR K6R6 241553Z AUTO 16004KT 32/18 A3010 RMK AO1 SLP149 T03220178





000
SAUS44 KMAF 241458
MTRGDP
METAR KGDP 241451Z AUTO VRB06KT 7SM CLR 26/13 A3035 RMK AO2 SLP186
T02560133 53008





000
SAUS44 KMAF 241454
MTR6R6
METAR K6R6 241453Z AUTO 08005KT 31/18 A3010 RMK AO1 SLP150 T03060178
51009





000
SAUS44 KMAF 241358
MTRGDP
METAR KGDP 241351Z AUTO 04010KT 7SM CLR 24/13 A3033 RMK AO2 SLP181
T02390128





000
SAUS44 KMAF 241354
MTR6R6
METAR K6R6 241353Z AUTO 06005KT 29/17 A3010 RMK AO1 SLP148 T02940172





000
SAUS44 KMAF 241258
MTRGDP
METAR KGDP 241251Z AUTO 04011KT 7SM CLR 22/12 A3033 RMK AO2 SLP182
T02170122





000
SAUS44 KMAF 241254
MTR6R6
METAR K6R6 241253Z AUTO 04005KT 28/17 A3009 RMK AO1 SLP146 T02780167





000
SAUS44 KMAF 241158
MTRGDP
METAR KGDP 241151Z AUTO 05012KT 9SM CLR 21/12 A3032 RMK AO2 SLP179
T02060117 10233 20206 53001





000
SAUS44 KMAF 241154
MTR6R6
METAR K6R6 241153Z AUTO 03006KT 26/16 A3008 RMK AO1 SLP141 T02610161
10300 20261 53001





000
SAUS44 KMAF 241058
MTRGDP
METAR KGDP 241051Z AUTO 05012KT 9SM CLR 21/11 A3031 RMK AO2 SLP173
T02110111





000
SAUS44 KMAF 241054
MTR6R6
METAR K6R6 241053Z AUTO 36005KT 27/16 A3006 RMK AO1 SLP137 T02670161





000
SAUS44 KMAF 240958
MTRGDP
METAR KGDP 240951Z AUTO 06013KT 9SM CLR 22/11 A3031 RMK AO2 SLP170
T02170106





000
SAUS44 KMAF 240954
MTR6R6
METAR K6R6 240953Z AUTO 01006KT 27/16 A3007 RMK AO1 SLP137 T02720156





000
SAUS44 KMAF 240858
MTRGDP
METAR KGDP 240851Z AUTO 07013KT 9SM CLR 22/10 A3032 RMK AO2 SLP173
T02220100 58008





000
SAUS44 KMAF 240854
MTR6R6
METAR K6R6 240853Z AUTO 03007KT 28/16 A3007 RMK AO1 SLP139 T02830156
58003





000
SAUS44 KMAF 240758
MTRGDP
METAR KGDP 240751Z AUTO 08011KT 9SM CLR 23/09 A3033 RMK AO2 SLP177
T02280094





000
SAUS44 KMAF 240754
MTR6R6
METAR K6R6 240753Z AUTO 36005KT 28/16 A3008 RMK AO1 SLP141 T02780156





000
SAUS44 KMAF 240658
MTRGDP
METAR KGDP 240651Z AUTO 06012KT 9SM CLR 22/09 A3034 RMK AO2 SLP181
T02220094 403060206





000
SAUS44 KMAF 240654
MTR6R6
METAR K6R6 240653Z AUTO 05005KT 29/16 A3008 RMK AO1 SLP142 T02940156





000
SAUS44 KMAF 240558
MTRGDP
METAR KGDP 240551Z AUTO 09010KT 9SM CLR 23/09 A3034 RMK AO2 SLP185
T02330089 10289 20233 51010





000
SAUS44 KMAF 240554
MTR6R6
METAR K6R6 240553Z AUTO 05005KT 29/15 A3008 RMK AO1 SLP143 T02940150
10383 20294 403940261 51008





000
SAUS44 KMAF 240458
MTRGDP
METAR KGDP 240451Z AUTO 09010KT 9SM CLR 24/08 A3034 RMK AO2 SLP186
T02390083





000
SAUS44 KMAF 240454
MTR6R6
METAR K6R6 240453Z AUTO 09005KT 32/16 A3008 RMK AO1 SLP140 T03170156





000
SAUS44 KMAF 240358
MTRGDP
METAR KGDP 240351Z AUTO 07011KT 9SM CLR 24/08 A3032 RMK AO2 SLP176
T02440083





000
SAUS44 KMAF 240354
MTR6R6
METAR K6R6 240353Z AUTO 08003KT 32/15 A3007 RMK AO1 SLP140 T03170150





000
SAUS44 KMAF 240258
MTRGDP
METAR KGDP 240251Z AUTO 08012KT 9SM CLR 26/08 A3031 RMK AO2 SLP173
T02560078 53007





000
SAUS44 KMAF 240254
MTR6R6
METAR K6R6 240253Z AUTO 13005KT 33/16 A3006 RMK AO1 SLP134 T03330156
53014





000
SAUS44 KMAF 240158
MTRGDP
METAR KGDP 240151Z AUTO 08012KT 8SM CLR 27/07 A3029 RMK AO2 PK WND
08026/0056 SLP167 T02670072





000
SAUS44 KMAF 240154
MTR6R6
METAR K6R6 240153Z AUTO 12007KT 36/14 A3002 RMK AO1 SLP123 T03560139





000
SAUS44 KMAF 240058
MTRGDP
METAR KGDP 240051Z AUTO 08020G25KT 8SM CLR 28/07 A3027 RMK AO2 PK
WND 08029/0000 SLP160 T02830067





000
SAUS44 KMAF 240054
MTR6R6
METAR K6R6 240053Z AUTO 10009KT 37/13 A3002 RMK AO1 SLP120 T03720133





000
SAUS44 KMAF 240007 COR
MTRGDP
METAR KGDP 232351Z AUTO 08021G26KT 8SM CLR 29/06 A3028 RMK AO2 PK
WND 07029/2304 SLP164 T02890061 10306 20283 56017





000
SAUS44 KMAF 240006 COR
MTRGDP
METAR KGDP 232351Z AUTO 08021G26KT 8SM CLR 29/06 A3028 RMK AO2 PK
WND 07029/2304 SLP164 T02890061 10306 20283 56017





000
SAUS44 KMAF 240005 COR
MTRGDP
METAR KGDP 232351Z AUTO 08021G26KT 8SM CLR 29/06 A3028 RMK AO2 PK
WND 07029/2304 SLP164 T02890061 10306 20283 56017





000
SAUS44 KMAF 240000 COR
MTRGDP
METAR KGDP 232351Z AUTO 08021G26KT 8SM CLR 29/06 A3028 RMK AO2 PK
WND 07029/2304 SLP164 T02890061 10306 20283 56017





000
SAUS44 KMAF 232359 COR
MTRGDP
METAR KGDP 232351Z AUTO 08021G26KT 8SM CLR 29/06 A3028 RMK AO2 PK
WND 07029/2304 SLP164 T02890061 10306 20283 56017





000
SAUS44 KMAF 232358
MTRGDP
METAR KGDP 232351Z AUTO 08021G26KT 8SM CLR 29/06 A3028 RMK AO2 PK
WND 07029/2304 SLP164 T02890061 10306 20283 56017





000
SAUS44 KMAF 232354
MTR6R6
METAR K6R6 232353Z AUTO 08005G16KT 38/13 A3001 RMK AO1 SLP119
T03780133 10394 20350 58020





000
SAUS44 KMAF 232258
MTRGDP
METAR KGDP 232251Z AUTO 08020G30KT 8SM CLR 29/06 A3030 RMK AO2 PK
WND 08030/2248 SLP168 T02940061





000
SAUS44 KMAF 232254
MTR6R6
METAR K6R6 232253Z AUTO 07009G17KT 39/13 A3004 RMK AO1 SLP129
T03890128





000
SAUS44 KMAF 232158
MTRGDP
METAR KGDP 232151Z AUTO 08022KT 8SM CLR 30/07 A3031 RMK AO2 PK WND
08030/2120 SLP169 T03000072





000
SAUS44 KMAF 232154
MTR6R6
METAR K6R6 232153Z AUTO 09010KT 060V130 39/14 A3006 RMK AO1 SLP133
T03940144





000
SAUS44 KMAF 232105 COR
MTRGDP
METAR KGDP 232051Z AUTO 08015G24KT 8SM SCT080 29/08 A3034 RMK AO2 PK
WND 08033/2020 SLP181 T02940083 58006





000
SAUS44 KMAF 232100 COR
MTRGDP
METAR KGDP 232051Z AUTO 08015G24KT 8SM SCT080 29/08 A3034 RMK AO2 PK
WND 08033/2020 SLP181 T02940083 58006





000
SAUS44 KMAF 232059 COR
MTRGDP
METAR KGDP 232051Z AUTO 08015G24KT 8SM SCT080 29/08 A3034 RMK AO2 PK
WND 08033/2020 SLP181 T02940083 58006





000
SAUS44 KMAF 232058
MTRGDP
METAR KGDP 232051Z AUTO 08015G24KT 8SM SCT080 29/08 A3034 RMK AO2 PK
WND 08033/2020 SLP181 T02940083 58006





000
SAUS44 KMAF 232054
MTR6R6
METAR K6R6 232053Z AUTO 08007G16KT 38/15 A3008 RMK AO1 SLP141
T03830150 58020





000
SAUS44 KMAF 231958
MTRGDP
METAR KGDP 231951Z AUTO 08023G28KT 8SM FEW080 29/08 A3036 RMK AO2 PK
WND 07030/1929 SLP184 T02940083





000
SAUS44 KMAF 231956
MTRGDP
SPECI KGDP 231949Z AUTO 08021G28KT 8SM FEW080 29/08 A3036 RMK AO2 PK
WND 07030/1929





000
SAUS44 KMAF 231954
MTR6R6
METAR K6R6 231953Z AUTO 07010G17KT 38/15 A3010 RMK AO1 SLP151
T03780150





000
SAUS44 KMAF 231947
MTRGDP
SPECI KGDP 231940Z AUTO 08023G30KT 2 1/2SM HZ FEW075 30/09 A3036 RMK
AO2 PK WND 07030/1929 T03000089





000
SAUS44 KMAF 231858
MTRGDP
METAR KGDP 231851Z AUTO 08024G28KT 8SM CLR 29/11 A3037 RMK AO2 PK
WND 07033/1809 SLP188 T02940106





000
SAUS44 KMAF 231854
MTR6R6
METAR K6R6 231853Z AUTO 11013G18KT 38/16 A3013 RMK AO1 SLP157
T03780161





000
SAUS44 KMAF 231800 COR
MTRGDP
METAR KGDP 231751Z AUTO 08022G30KT 8SM CLR 28/12 A3038 RMK AO2 PK
WND 08032/1740 SLP194 T02780117 10283 20206 58002





000
SAUS44 KMAF 231759 COR
MTRGDP
METAR KGDP 231751Z AUTO 08022G30KT 8SM CLR 28/12 A3038 RMK AO2 PK
WND 08032/1740 SLP194 T02780117 10283 20206 58002





000
SAUS44 KMAF 231758
MTRGDP
METAR KGDP 231751Z AUTO 08022G30KT 8SM CLR 28/12 A3038 RMK AO2 PK
WND 08032/1740 SLP194 T02780117 10283 20206 58002





000
SAUS44 KMAF 231754
MTR6R6
METAR K6R6 231753Z AUTO 36/17 A3014 RMK AO1 SLP162 T03560172 10361
20261 58003





000
SAUS44 KMAF 231658
MTRGDP
METAR KGDP 231651Z AUTO 06018G27KT 8SM SCT049 SCT060 26/14 A3038 RMK
AO2 PK WND 08027/1640 SLP199 T02610139





000
SAUS44 KMAF 231654
MTR6R6
METAR K6R6 231653Z AUTO 10009KT 070V130 35/19 A3015 RMK AO1 SLP165
T03500189





000
SAUS44 KMAF 231558
MTRGDP
METAR KGDP 231551Z AUTO 06013G22KT 8SM CLR 27/14 A3039 RMK AO2
SLP197 T02720144





000
SAUS44 KMAF 231554
MTR6R6
METAR K6R6 231553Z AUTO 09007KT 33/20 A3015 RMK AO1 SLP168 T03280200





000
SAUS44 KMAF 231458
MTRGDP
METAR KGDP 231451Z AUTO 06012KT 8SM CLR 26/14 A3038 RMK AO2 SLP198
T02560139





000
SAUS44 KMAF 231454
MTR6R6
METAR K6R6 231453Z AUTO 07007KT 31/20 A3015 RMK AO1 SLP167 T03060200
51008





000
SAUS44 KMAF 231358
MTRGDP
METAR KGDP 231351Z AUTO 06011KT 8SM CLR 24/14 A3037 RMK AO2 SLP193
T02440139





000
SAUS44 KMAF 231354
MTR6R6
METAR K6R6 231353Z AUTO 06009KT 29/18 A3014 RMK AO1 SLP165 T02890183





000
SAUS44 KMAF 231258
MTRGDP
METAR KGDP 231251Z AUTO 05013KT 8SM CLR 22/14 A3036 RMK AO2 SLP189
T02220139





000
SAUS44 KMAF 231254
MTR6R6
METAR K6R6 231253Z AUTO 04007KT 27/17 A3013 RMK AO1 SLP162 T02720172





000
SAUS44 KMAF 231158
MTRGDP
METAR KGDP 231151Z AUTO 05010KT 9SM CLR 22/13 RMK AO2 SLPNO
T02170133 10244 20217 $





000
SAUS44 KMAF 231154
MTR6R6
METAR K6R6 231153Z AUTO 01007KT 26/17 A3012 RMK AO1 SLP158 T02610167
10306 20261 53006





000
SAUS44 KMAF 231058
MTRGDP
METAR KGDP 231051Z AUTO 03009KT 9SM FEW110 23/13 RMK AO2 SLPNO
T02280128 $





000
SAUS44 KMAF 231055
MTR6R6
METAR K6R6 231053Z AUTO 01005KT 26/17 A3011 RMK AO1 SLP154 T02610167





000
SAUS44 KMAF 230958
MTRGDP
METAR KGDP 230951Z AUTO 04008KT 9SM FEW110 23/13 RMK AO2 SLPNO
T02280128 $





000
SAUS44 KMAF 230954
MTR6R6
METAR K6R6 230953Z AUTO 03004KT 27/16 A3010 RMK AO1 SLP151 T02670161





000
SAUS44 KMAF 230858
MTRGDP
METAR KGDP 230851Z AUTO 03012KT 9SM CLR 23/12 RMK AO2 SLPNO
T02330122 $





000
SAUS44 KMAF 230854
MTR6R6
METAR K6R6 230853Z AUTO 05003KT 27/16 A3011 RMK AO1 SLP151 T02720161
53000





000
SAUS44 KMAF 230758
MTRGDP
METAR KGDP 230751Z AUTO 04012KT 9SM CLR 23/12 RMK AO2 SLPNO
T02330122 $





000
SAUS44 KMAF 230754
MTR6R6
METAR K6R6 230753Z AUTO 04005KT 28/16 A3010 RMK AO1 SLP150 T02780161





000
SAUS44 KMAF 230658
MTRGDP
METAR KGDP 230651Z AUTO 04015KT 9SM FEW075 24/12 A3035 RMK AO2
SLP182 T02390122 403110211





000
SAUS44 KMAF 230654
MTR6R6
METAR K6R6 230653Z AUTO 08004KT 29/17 A3011 RMK AO1 SLP150 T02890167





000
SAUS44 KMAF 230558
MTRGDP
METAR KGDP 230551Z AUTO 04013KT 9SM CLR 24/13 A3035 RMK AO2 SLP182
T02390128 10294 20239 51011





000
SAUS44 KMAF 230554
MTR6R6
METAR K6R6 230553Z AUTO 09006KT 31/17 A3011 RMK AO1 SLP150 T03060172
10378 20289 403940261 51019





000
SAUS44 KMAF 230458
MTRGDP
METAR KGDP 230451Z AUTO 06010KT 9SM SCT100 24/12 A3034 RMK AO2
SLP179 T02440122





000
SAUS44 KMAF 230454
MTR6R6
METAR K6R6 230453Z AUTO 09004KT 31/17 A3010 RMK AO1 SLP150 T03110172





000
SAUS44 KMAF 230358
MTRGDP
METAR KGDP 230351Z AUTO 06011KT 9SM CLR 26/12 A3033 RMK AO2 SLP177
T02560117





000
SAUS44 KMAF 230354
MTR6R6
METAR K6R6 230353Z AUTO 12005KT 32/17 A3008 RMK AO1 SLP142 T03220172





000
SAUS44 KMAF 230354
MTR6R6
METAR K6R6 230353Z AUTO 12005KT 32/17 A3008 RMK AO1 SLP142 T03220172





000
SAUS44 KMAF 230258
MTRGDP
METAR KGDP 230251Z AUTO 05009KT 9SM CLR 26/11 A3031 RMK AO2 SLP172
T02560111 53015





000
SAUS44 KMAF 230254
MTR6R6
METAR K6R6 230253Z AUTO 12008KT 33/17 A3004 RMK AO1 SLP132 T03330167
52013





000
SAUS44 KMAF 230200 COR
MTRGDP
METAR KGDP 230151Z AUTO 08017KT 8SM CLR 27/10 A3028 RMK AO2 PK WND
08026/0056 SLP166 T02720100





000
SAUS44 KMAF 230159 COR
MTRGDP
METAR KGDP 230151Z AUTO 08017KT 8SM CLR 27/10 A3028 RMK AO2 PK WND
08026/0056 SLP166 T02720100





000
SAUS44 KMAF 230158
MTRGDP
METAR KGDP 230151Z AUTO 08017KT 8SM CLR 27/10 A3028 RMK AO2 PK WND
08026/0056 SLP166 T02720100





000
SAUS44 KMAF 230154
MTR6R6
METAR K6R6 230153Z AUTO 12011KT 34/16 A3003 RMK AO1 SLP128 T03440156





000
SAUS44 KMAF 230058
MTRGDP
METAR KGDP 230051Z AUTO 08023KT 8SM CLR 28/11 A3027 RMK AO2 SLP160
T02830106





000
SAUS44 KMAF 230054
MTR6R6
METAR K6R6 230053Z AUTO 11013KT 36/16 A3002 RMK AO1 SLP122 T03610156





000
SAUS44 KMAF 230005 COR
MTRGDP
METAR KGDP 222351Z AUTO 06018KT 8SM CLR 29/11 A3026 RMK AO2 PK WND
07027/2256 SLP154 T02940106 10311 20289 50000





000
SAUS44 KMAF 230000 COR
MTRGDP
METAR KGDP 222351Z AUTO 06018KT 8SM CLR 29/11 A3026 RMK AO2 PK WND
07027/2256 SLP154 T02940106 10311 20289 50000





000
SAUS44 KMAF 222359 COR
MTRGDP
METAR KGDP 222351Z AUTO 06018KT 8SM CLR 29/11 A3026 RMK AO2 PK WND
07027/2256 SLP154 T02940106 10311 20289 50000





000
SAUS44 KMAF 222358
MTRGDP
METAR KGDP 222351Z AUTO 06018KT 8SM CLR 29/11 A3026 RMK AO2 PK WND
07027/2256 SLP154 T02940106 10311 20289 50000





000
SAUS44 KMAF 222354
MTR6R6
METAR K6R6 222353Z AUTO 11015G21KT 38/15 A3001 RMK AO1 SLP117
T03780150 10394 20356 56007





000
SAUS44 KMAF 222259 COR
MTRGDP
METAR KGDP 222251Z AUTO 06019G25KT 8SM CLR 31/12 A3026 RMK AO2 PK
WND 08028/2204 SLP148 T03060117





000
SAUS44 KMAF 222258
MTRGDP
METAR KGDP 222251Z AUTO 06019G25KT 8SM CLR 31/12 A3026 RMK AO2 PK
WND 08028/2204 SLP148 T03060117





000
SAUS44 KMAF 222254
MTR6R6
METAR K6R6 222253Z AUTO 09013G21KT 38/16 A3001 RMK AO1 SLP119
T03830156





000
SAUS44 KMAF 222158
MTRGDP
METAR KGDP 222151Z AUTO 05016G27KT 8SM CLR 31/13 A3026 RMK AO2 PK
WND 08027/2143 SLP150 T03110128





000
SAUS44 KMAF 222154
MTR6R6
METAR K6R6 222153Z AUTO 11011G21KT 39/16 A3001 RMK AO1 SLP119
T03890156





000
SAUS44 KMAF 222059 COR
MTRGDP
METAR KGDP 222051Z AUTO 07025G28KT 8SM CLR 31/13 A3026 RMK AO2 PK
WND 07028/2049 SLP148 T03060128 58014





000
SAUS44 KMAF 222058
MTRGDP
METAR KGDP 222051Z AUTO 07025G28KT 8SM CLR 31/13 A3026 RMK AO2 PK
WND 07028/2049 SLP148 T03060128 58014





000
SAUS44 KMAF 222054
MTR6R6
METAR K6R6 222053Z AUTO 11014G19KT 38/17 A3003 RMK AO1 SLP123
T03830167 58016





000
SAUS44 KMAF 222005 COR
MTRGDP
METAR KGDP 221951Z AUTO 07017KT 8SM CLR 31/14 A3028 RMK AO2 PK WND
07027/1906 SLP157 T03060139





000
SAUS44 KMAF 222000 COR
MTRGDP
METAR KGDP 221951Z AUTO 07017KT 8SM CLR 31/14 A3028 RMK AO2 PK WND
07027/1906 SLP157 T03060139





000
SAUS44 KMAF 221959 COR
MTRGDP
METAR KGDP 221951Z AUTO 07017KT 8SM CLR 31/14 A3028 RMK AO2 PK WND
07027/1906 SLP157 T03060139





000
SAUS44 KMAF 221958
MTRGDP
METAR KGDP 221951Z AUTO 07017KT 8SM CLR 31/14 A3028 RMK AO2 PK WND
07027/1906 SLP157 T03060139





000
SAUS44 KMAF 221954
MTR6R6
METAR K6R6 221953Z AUTO 09011KT 37/18 A3005 RMK AO1 SLP131 T03670178





000
SAUS44 KMAF 221858
MTRGDP
METAR KGDP 221851Z AUTO 06014G26KT 8SM CLR 31/14 A3030 RMK AO2 PK
WND 08026/1828 SLP164 T03060139





000
SAUS44 KMAF 221854
MTR6R6
METAR K6R6 221853Z AUTO 13012KT 37/19 A3007 RMK AO1 SLP137 T03720194





000
SAUS44 KMAF 221805 COR
MTRGDP
METAR KGDP 221751Z AUTO 07020G23KT 8SM CLR 29/15 A3030 RMK AO2
SLP164 T02940150 10294 20211 50006





000
SAUS44 KMAF 221759 COR
MTRGDP
METAR KGDP 221751Z AUTO 07020G23KT 8SM CLR 29/15 A3030 RMK AO2
SLP164 T02940150 10294 20211 50006





000
SAUS44 KMAF 221758
MTRGDP
METAR KGDP 221751Z AUTO 07020G23KT 8SM CLR 29/15 A3030 RMK AO2
SLP164 T02940150 10294 20211 50006





000
SAUS44 KMAF 221754
MTR6R6
METAR K6R6 221753Z AUTO 11011G19KT 080V150 36/21 A3008 RMK AO1
SLP140 T03560206 10356 20261 58004





000
SAUS44 KMAF 221658
MTRGDP
METAR KGDP 221651Z AUTO 08017KT 8SM CLR 28/17 A3031 RMK AO2 SLP167
T02830167





000
SAUS44 KMAF 221654
MTR6R6
METAR K6R6 221653Z AUTO 09010KT 33/21 A3008 RMK AO1 SLP144 T03280211





000
SAUS44 KMAF 221558
MTRGDP
METAR KGDP 221551Z AUTO 07013KT 8SM CLR 26/16 A3030 RMK AO2 SLP170
T02610161





000
SAUS44 KMAF 221554
MTR6R6
METAR K6R6 221553Z AUTO 13007KT 31/22 A3009 RMK AO1 SLP146 T03110222





000
SAUS44 KMAF 221458
MTRGDP
METAR KGDP 221451Z AUTO 06018KT 7SM CLR 25/18 A3028 RMK AO2 PK WND
05029/1406 SLP160 T02500178 51007





000
SAUS44 KMAF 221454
MTR6R6
METAR K6R6 221453Z AUTO 09009KT 29/22 A3009 RMK AO1 SLP147 T02890222
51012





000
SAUS44 KMAF 221358
MTRGDP
METAR KGDP 221351Z AUTO 05025KT 6SM HZ CLR 22/17 A3028 RMK AO2 PK
WND 05030/1324 SLP161 T02170172





000
SAUS44 KMAF 221354
MTR6R6
METAR K6R6 221353Z AUTO 10008KT 28/23 A3009 RMK AO1 SLP147 T02780228





000
SAUS44 KMAF 221258
MTRGDP
METAR KGDP 221251Z AUTO 05019KT 7SM CLR 21/17 A3027 RMK AO2 PK WND
04028/1233 SLP158 T02110167





000
SAUS44 KMAF 221254
MTR6R6
METAR K6R6 221253Z AUTO 09005KT 27/22 A3007 RMK AO1 SLP141 T02720222





000
SAUS44 KMAF 221158
MTRGDP
METAR KGDP 221151Z AUTO 05013KT 9SM CLR 21/15 A3026 RMK AO2 SLP151
T02110150 10256 20211 53004





000
SAUS44 KMAF 221154
MTR6R6
METAR K6R6 221153Z AUTO 09004KT 27/22 A3005 RMK AO1 SLP133 T02670222
10311 20267 53009





000
SAUS44 KMAF 221058
MTRGDP
METAR KGDP 221051Z AUTO 24006KT 9SM CLR 23/14 A3024 RMK AO2 SLP143
T02330144





000
SAUS44 KMAF 221054
MTR6R6
METAR K6R6 221053Z AUTO 08006KT 28/22 A3003 RMK AO1 SLP126 T02780222





000
SAUS44 KMAF 220958
MTRGDP
METAR KGDP 220951Z AUTO 24005KT 9SM CLR 24/14 A3024 RMK AO2 SLP143
T02390144





000
SAUS44 KMAF 220954
MTR6R6
METAR K6R6 220953Z AUTO 07007KT 28/22 A3002 RMK AO1 SLP121 T02830222





000
SAUS44 KMAF 220858
MTRGDP
METAR KGDP 220851Z AUTO 05006KT 9SM CLR 24/14 A3024 RMK AO2 SLP143
T02390144 58001





000
SAUS44 KMAF 220854
MTR6R6
METAR K6R6 220853Z AUTO 10008KT 29/22 A3002 RMK AO1 SLP121 T02940217
50000





    US Dept of Commerce
    National Oceanic and Atmospheric Administration
    National Weather Service
    1325 East West Highway
    Silver Spring, MD 20910
    Page Author: NWS Internet Services Team
Disclaimer
Information Quality
Credits
Glossary
Privacy Policy
Freedom of Information Act (FOIA)
About Us
Career Opportunities